Time;durP1;ratioP1;P1;durP2;ratioP2;P2;SDS_P1;SDS_P2;PMS_P1;PMS_P2;Temp;Humidity;BMP_temperature;BMP_pressure;BME280_temperature;BME280_humidity;BME280_pressure;Samples;Min_cycle;Max_cycle;Signal;HPM_P1;HPM_P2
2023/12/28 00:01:50;;;;;;;;;;;;;;;9.44;100.00;100827.84;5013960;28;19935;-74
2023/12/28 00:04:15;;;;;;;;;;;;;;;9.38;100.00;100825.66;5028784;28;19925;-75
2023/12/28 00:06:40;;;;;;;;;;;;;;;9.30;100.00;100836.91;5030455;28;19925;-75
2023/12/28 00:09:07;;;;;;;;;;;;;;;9.22;100.00;100837.47;5029477;28;19927;-79
2023/12/28 00:11:32;;;;;;;;;;;;;;;9.27;100.00;100837.16;5023581;28;20354;-72
2023/12/28 00:13:57;;;;;;;;;;;;;;;9.11;100.00;100810.63;5027518;28;19921;-75
2023/12/28 00:16:23;;;;;;;;;;;;;;;9.32;100.00;100844.84;5019344;28;20306;-73
2023/12/28 00:18:48;;;;;;;;;;;;;;;9.28;100.00;100838.84;5016139;28;20724;-74
2023/12/28 00:21:13;;;;;;;;;;;;;;;9.13;100.00;100848.88;5013672;28;20263;-72
2023/12/28 00:23:38;;;;;;;;;;;;;;;9.17;100.00;100838.78;5023409;28;20015;-74
2023/12/28 00:26:03;;;;;;;;;;;;;;;9.21;100.00;100840.28;5026312;28;19924;-75
2023/12/28 00:28:29;;;;;;;;;;;;;;;9.21;100.00;100835.75;5013150;28;19966;-74
2023/12/28 00:30:54;;;;;;;;;;;;;;;9.12;100.00;100853.34;5015404;28;19979;-74
2023/12/28 00:33:19;;;;;;;;;;;;;;;9.17;100.00;100847.66;5024239;28;19948;-74
2023/12/28 00:35:44;;;;;;;;;;;;;;;9.10;100.00;100851.75;5035469;28;19946;-74
2023/12/28 00:38:09;;;;;;;;;;;;;;;9.08;100.00;100865.25;5037268;28;19921;-77
2023/12/28 00:40:35;;;;;;;;;;;;;;;9.05;100.00;100861.94;5029519;28;20003;-77
2023/12/28 00:43:00;;;;;;;;;;;;;;;9.06;100.00;100867.16;5022008;28;19921;-74
2023/12/28 00:45:25;;;;;;;;;;;;;;;9.06;100.00;100858.28;5024700;28;20020;-74
2023/12/28 00:47:52;;;;;;;;;;;;;;;9.00;100.00;100849.72;5020807;28;20484;-74
2023/12/28 00:50:17;;;;;;;;;;;;;;;9.07;100.00;100851.97;5019569;28;20358;-75
2023/12/28 00:52:42;;;;;;;;;;;;;;;9.25;100.00;100852.47;5031859;28;20063;-77
2023/12/28 00:55:07;;;;;;;;;;;;;;;9.20;100.00;100865.34;5023329;28;20002;-76
2023/12/28 00:57:33;;;;;;;;;;;;;;;9.30;100.00;100856.53;5025752;28;19970;-75
2023/12/28 00:59:58;;;;;;;;;;;;;;;9.28;100.00;100869.19;5009776;28;20056;-74
2023/12/28 01:02:23;;;;;;;;;;;;;;;9.26;100.00;100884.50;5023951;28;20379;-72
2023/12/28 01:04:48;;;;;;;;;;;;;;;9.15;100.00;100879.91;5024096;28;20649;-77
2023/12/28 01:07:13;;;;;;;;;;;;;;;9.04;100.00;100877.13;5025677;28;20531;-75
2023/12/28 01:09:39;;;;;;;;;;;;;;;8.97;100.00;100881.22;5026076;28;20418;-74
2023/12/28 01:12:05;;;;;;;;;;;;;;;9.08;100.00;100888.50;5029418;28;19921;-75
2023/12/28 01:14:30;;;;;;;;;;;;;;;9.08;100.00;100884.00;5025211;28;20012;-76
2023/12/28 01:16:55;;;;;;;;;;;;;;;9.15;100.00;100881.72;5024215;28;19924;-74
2023/12/28 01:19:21;;;;;;;;;;;;;;;8.98;100.00;100899.84;5023899;28;19921;-73
2023/12/28 01:21:46;;;;;;;;;;;;;;;9.14;100.00;100899.63;5022446;28;19960;-72
2023/12/28 01:24:11;;;;;;;;;;;;;;;8.94;100.00;100898.34;5028820;28;19955;-74
2023/12/28 01:26:37;;;;;;;;;;;;;;;9.06;100.00;100902.00;5027735;28;19925;-74
2023/12/28 01:29:03;;;;;;;;;;;;;;;9.16;100.00;100910.22;5028951;28;19968;-75
2023/12/28 01:31:28;;;;;;;;;;;;;;;9.18;100.00;100915.50;5024453;28;19921;-74
2023/12/28 01:33:53;;;;;;;;;;;;;;;9.24;100.00;100909.72;5026772;28;19924;-74
2023/12/28 01:36:19;;;;;;;;;;;;;;;9.23;100.00;100916.03;5014170;28;20279;-73
2023/12/28 01:38:44;;;;;;;;;;;;;;;9.25;100.00;100919.47;5025429;28;20445;-73
2023/12/28 01:41:09;;;;;;;;;;;;;;;9.18;100.00;100913.66;5022475;28;19964;-75
2023/12/28 01:43:34;;;;;;;;;;;;;;;9.26;100.00;100916.66;5029135;28;20042;-75
2023/12/28 01:46:00;;;;;;;;;;;;;;;9.16;100.00;100920.94;5032534;28;19946;-74
2023/12/28 01:48:25;;;;;;;;;;;;;;;9.21;100.00;100918.81;5026154;28;19929;-75
2023/12/28 01:50:50;;;;;;;;;;;;;;;9.22;100.00;100917.84;5006142;28;19917;-75
2023/12/28 01:53:15;;;;;;;;;;;;;;;9.14;100.00;100921.06;5009163;28;19932;-75
2023/12/28 01:55:41;;;;;;;;;;;;;;;9.16;100.00;100918.25;5026247;28;20323;-74
2023/12/28 01:58:06;;;;;;;;;;;;;;;9.12;100.00;100928.34;5023900;28;20086;-74
2023/12/28 02:00:31;;;;;;;;;;;;;;;9.19;100.00;100931.44;5011054;28;20278;-74
2023/12/28 02:02:57;;;;;;;;;;;;;;;9.11;100.00;100918.59;5026415;28;19963;-74
2023/12/28 02:05:22;;;;;;;;;;;;;;;9.17;100.00;100927.16;5023955;28;19984;-74
2023/12/28 02:07:47;;;;;;;;;;;;;;;9.11;100.00;100917.75;5023695;28;20289;-73
2023/12/28 02:10:12;;;;;;;;;;;;;;;9.11;100.00;100931.16;5025460;28;20323;-73
2023/12/28 02:12:37;;;;;;;;;;;;;;;9.04;100.00;100928.03;5026446;28;20597;-74
2023/12/28 02:15:03;;;;;;;;;;;;;;;9.15;100.00;100924.59;5029534;28;19920;-73
2023/12/28 02:17:30;;;;;;;;;;;;;;;9.08;100.00;100923.31;5029673;28;19956;-73
2023/12/28 02:19:55;;;;;;;;;;;;;;;9.12;100.00;100931.03;5013962;28;19928;-73
2023/12/28 02:22:21;;;;;;;;;;;;;;;9.11;100.00;100929.31;5028742;28;20477;-73
2023/12/28 02:24:57;;;;;;;;;;;;;;;8.98;100.00;100934.66;5013964;28;19963;-72
2023/12/28 02:27:23;;;;;;;;;;;;;;;8.95;100.00;100934.03;5024607;28;19921;-73
2023/12/28 02:29:48;;;;;;;;;;;;;;;8.95;100.00;100929.53;5028329;28;19927;-72
2023/12/28 02:32:13;;;;;;;;;;;;;;;8.90;100.00;100936.16;5028533;28;19963;-72
2023/12/28 02:34:39;;;;;;;;;;;;;;;8.94;100.00;100930.50;5010305;28;20035;-75
2023/12/28 02:37:04;;;;;;;;;;;;;;;9.04;100.00;100921.81;5012215;28;20024;-74
2023/12/28 02:39:29;;;;;;;;;;;;;;;9.02;100.00;100921.91;5033234;28;19924;-76
2023/12/28 02:41:55;;;;;;;;;;;;;;;9.05;100.00;100921.69;5025402;28;19925;-73
2023/12/28 02:44:20;;;;;;;;;;;;;;;9.05;100.00;100918.19;5022485;28;19932;-73
2023/12/28 02:46:45;;;;;;;;;;;;;;;8.93;100.00;100912.69;5024237;28;20259;-75
2023/12/28 02:49:11;;;;;;;;;;;;;;;9.10;100.00;100913.38;5009007;28;19921;-75
2023/12/28 02:51:37;;;;;;;;;;;;;;;8.97;100.00;100916.03;5027306;28;19920;-75
2023/12/28 02:54:02;;;;;;;;;;;;;;;8.95;100.00;100916.13;5028467;28;19959;-74
2023/12/28 02:56:27;;;;;;;;;;;;;;;9.02;100.00;100902.31;5011794;28;19921;-74
2023/12/28 02:58:52;;;;;;;;;;;;;;;8.96;100.00;100908.97;5026811;28;19939;-74
2023/12/28 03:01:17;;;;;;;;;;;;;;;8.87;100.00;100909.59;5013103;28;20402;-73
2023/12/28 03:03:43;;;;;;;;;;;;;;;8.90;100.00;100904.03;5031025;28;20014;-75
2023/12/28 03:06:08;;;;;;;;;;;;;;;9.12;100.00;100904.25;5025183;28;19929;-73
2023/12/28 03:08:33;;;;;;;;;;;;;;;8.94;100.00;100911.75;5028527;28;19921;-73
2023/12/28 03:10:58;;;;;;;;;;;;;;;8.81;100.00;100924.28;5031756;28;19927;-74
2023/12/28 03:13:24;;;;;;;;;;;;;;;8.93;100.00;100902.00;5032675;28;20850;-73
2023/12/28 03:15:49;;;;;;;;;;;;;;;8.95;100.00;100904.59;5024388;28;19932;-74
2023/12/28 03:18:14;;;;;;;;;;;;;;;9.04;100.00;100898.56;5027872;28;19921;-73
2023/12/28 03:20:39;;;;;;;;;;;;;;;9.01;100.00;100888.06;5030302;28;20322;-75
2023/12/28 03:23:05;;;;;;;;;;;;;;;8.95;100.00;100889.34;5029418;28;20428;-73
2023/12/28 03:25:30;;;;;;;;;;;;;;;8.98;100.00;100901.69;5028409;28;19936;-72
2023/12/28 03:27:55;;;;;;;;;;;;;;;9.06;100.00;100901.16;5026091;28;20348;-74
2023/12/28 03:30:20;;;;;;;;;;;;;;;9.04;100.00;100906.59;5025360;28;20240;-73
2023/12/28 03:32:45;;;;;;;;;;;;;;;8.99;100.00;100906.94;5026492;28;19932;-75
2023/12/28 03:35:11;;;;;;;;;;;;;;;9.05;100.00;100907.47;5007065;28;19924;-74
2023/12/28 03:37:36;;;;;;;;;;;;;;;9.05;100.00;100937.78;5025138;28;19964;-73
2023/12/28 03:40:01;;;;;;;;;;;;;;;9.26;100.00;100930.06;5028244;28;20023;-74
2023/12/28 03:42:26;;;;;;;;;;;;;;;9.33;100.00;100905.50;5029278;28;19920;-73
2023/12/28 03:44:52;;;;;;;;;;;;;;;9.43;100.00;100919.94;5025133;28;20532;-72
2023/12/28 03:47:17;;;;;;;;;;;;;;;9.31;100.00;100919.00;5023338;28;19928;-76
2023/12/28 03:49:42;;;;;;;;;;;;;;;9.27;100.00;100914.84;5034406;28;19923;-74
2023/12/28 03:52:07;;;;;;;;;;;;;;;9.25;100.00;100901.53;5027499;28;19979;-73
2023/12/28 03:54:32;;;;;;;;;;;;;;;9.08;100.00;100885.81;5016362;28;19949;-75
2023/12/28 03:56:58;;;;;;;;;;;;;;;9.28;100.00;100889.75;5031430;28;19921;-73
2023/12/28 03:59:23;;;;;;;;;;;;;;;9.26;100.00;100900.59;5033055;28;19959;-74
2023/12/28 04:01:48;;;;;;;;;;;;;;;9.31;100.00;100900.25;5011265;28;20070;-77
2023/12/28 04:04:13;;;;;;;;;;;;;;;9.30;100.00;100896.72;5026282;28;19920;-72
2023/12/28 04:06:38;;;;;;;;;;;;;;;9.18;100.00;100900.25;5029581;28;19928;-74
2023/12/28 04:09:04;;;;;;;;;;;;;;;9.37;100.00;100909.69;5035666;28;19927;-73
2023/12/28 04:11:29;;;;;;;;;;;;;;;9.38;100.00;100903.38;5023291;28;19921;-73
2023/12/28 04:13:54;;;;;;;;;;;;;;;9.36;100.00;100898.09;5027614;28;20576;-75
2023/12/28 04:16:20;;;;;;;;;;;;;;;9.27;100.00;100898.78;5010531;28;19952;-73
2023/12/28 04:18:45;;;;;;;;;;;;;;;9.40;100.00;100909.47;5031437;28;19916;-73
2023/12/28 04:21:11;;;;;;;;;;;;;;;9.33;100.00;100900.16;5028883;28;19924;-75
2023/12/28 04:23:36;;;;;;;;;;;;;;;9.39;100.00;100902.41;5034732;28;19928;-74
2023/12/28 04:26:02;;;;;;;;;;;;;;;9.49;100.00;100897.22;5027166;28;19925;-74
2023/12/28 04:28:27;;;;;;;;;;;;;;;9.50;100.00;100898.94;5027727;28;19921;-74
2023/12/28 04:30:52;;;;;;;;;;;;;;;9.66;100.00;100898.69;5026631;28;19925;-73
2023/12/28 04:33:19;;;;;;;;;;;;;;;9.58;100.00;100885.81;5031308;28;20240;-73
2023/12/28 04:35:44;;;;;;;;;;;;;;;9.53;100.00;100896.88;5028434;28;19947;-74
2023/12/28 04:38:09;;;;;;;;;;;;;;;9.63;100.00;100898.91;5011986;28;19921;-75
2023/12/28 04:40:34;;;;;;;;;;;;;;;9.69;100.00;100898.44;5036431;28;19943;-73
2023/12/28 04:43:00;;;;;;;;;;;;;;;9.59;100.00;100892.88;5029104;28;19925;-73
2023/12/28 04:45:25;;;;;;;;;;;;;;;9.44;100.00;100909.13;5026131;28;19979;-73
2023/12/28 04:47:50;;;;;;;;;;;;;;;9.67;100.00;100913.78;5027637;28;20027;-74
2023/12/28 04:50:15;;;;;;;;;;;;;;;9.72;100.00;100903.56;5013556;28;20015;-76
2023/12/28 04:52:40;;;;;;;;;;;;;;;9.63;100.00;100906.94;5027980;28;19927;-74
2023/12/28 04:55:06;;;;;;;;;;;;;;;9.58;100.00;100902.78;5015641;28;20307;-76
2023/12/28 04:57:31;;;;;;;;;;;;;;;9.60;100.00;100914.25;5028978;28;20259;-72
2023/12/28 04:59:56;;;;;;;;;;;;;;;9.57;100.00;100909.09;5013680;28;19951;-75
2023/12/28 05:02:22;;;;;;;;;;;;;;;9.72;100.00;100912.47;5027731;28;20290;-76
2023/12/28 05:04:47;;;;;;;;;;;;;;;9.81;100.00;100910.94;5029419;28;19924;-75
2023/12/28 05:07:12;;;;;;;;;;;;;;;9.75;100.00;100908.72;5026153;28;19979;-74
2023/12/28 05:09:37;;;;;;;;;;;;;;;9.83;100.00;100917.06;5028389;28;20089;-75
2023/12/28 05:12:03;;;;;;;;;;;;;;;9.90;100.00;100910.28;5014290;28;19921;-77
2023/12/28 05:14:28;;;;;;;;;;;;;;;9.85;100.00;100912.44;5026368;28;19956;-74
2023/12/28 05:16:53;;;;;;;;;;;;;;;9.86;100.00;100916.84;5021044;28;20294;-78
2023/12/28 05:19:18;;;;;;;;;;;;;;;9.90;100.00;100912.09;5028557;28;19921;-75
2023/12/28 05:21:44;;;;;;;;;;;;;;;9.88;100.00;100935.47;5020018;28;20422;-74
2023/12/28 05:24:09;;;;;;;;;;;;;;;10.00;100.00;100937.28;5027579;28;19956;-76
2023/12/28 05:26:34;;;;;;;;;;;;;;;9.96;100.00;100932.22;5027924;28;20445;-75
2023/12/28 05:28:59;;;;;;;;;;;;;;;9.95;100.00;100942.13;5012606;28;20454;-77
2023/12/28 05:31:24;;;;;;;;;;;;;;;9.95;100.00;100927.84;5024780;28;19925;-78
2023/12/28 05:33:50;;;;;;;;;;;;;;;9.99;100.00;100940.06;5022371;28;19935;-75
2023/12/28 05:36:15;;;;;;;;;;;;;;;9.84;100.00;100891.97;5012024;28;19924;-77
2023/12/28 05:38:40;;;;;;;;;;;;;;;10.04;100.00;100916.44;5021940;28;19920;-75
2023/12/28 05:41:05;;;;;;;;;;;;;;;9.94;100.00;100923.44;5013144;28;19920;-77
2023/12/28 05:43:31;;;;;;;;;;;;;;;9.90;100.00;100922.81;5029510;28;20573;-74
2023/12/28 05:45:56;;;;;;;;;;;;;;;9.93;100.00;100944.06;5012114;28;19928;-77
2023/12/28 05:48:21;;;;;;;;;;;;;;;10.00;100.00;100928.34;5025409;28;19968;-75
2023/12/28 05:50:46;;;;;;;;;;;;;;;9.90;100.00;100921.00;5040309;28;20019;-75
2023/12/28 05:53:13;;;;;;;;;;;;;;;9.90;100.00;100937.09;5029630;28;19921;-73
2023/12/28 05:55:42;;;;;;;;;;;;;;;9.95;100.00;100917.09;5021250;28;20397;-75
2023/12/28 05:58:07;;;;;;;;;;;;;;;9.94;100.00;100920.75;5025433;28;20462;-76
2023/12/28 06:00:32;;;;;;;;;;;;;;;9.92;100.00;100915.50;5027864;28;20047;-79
2023/12/28 06:02:57;;;;;;;;;;;;;;;9.88;100.00;100935.47;5023067;28;19935;-73
2023/12/28 06:05:23;;;;;;;;;;;;;;;9.89;100.00;100907.69;5009460;28;19925;-75
2023/12/28 06:07:48;;;;;;;;;;;;;;;10.05;100.00;100908.28;5021299;28;20387;-76
2023/12/28 06:10:13;;;;;;;;;;;;;;;10.02;100.00;100924.59;5024614;28;20371;-79
2023/12/28 06:12:38;;;;;;;;;;;;;;;10.01;100.00;100932.75;5024566;28;19920;-78
2023/12/28 06:15:04;;;;;;;;;;;;;;;9.97;100.00;100931.25;5032384;28;20524;-77
2023/12/28 06:17:29;;;;;;;;;;;;;;;9.94;100.00;100924.31;5003092;28;20389;-76
2023/12/28 06:19:54;;;;;;;;;;;;;;;9.96;100.00;100937.59;5013662;28;20641;-76
2023/12/28 06:22:19;;;;;;;;;;;;;;;9.97;100.00;100956.28;5033471;28;20365;-75
2023/12/28 06:24:45;;;;;;;;;;;;;;;9.95;100.00;100938.56;5009835;28;20389;-77
2023/12/28 06:27:10;;;;;;;;;;;;;;;9.92;100.00;100958.44;5017195;28;20003;-78
2023/12/28 06:29:36;;;;;;;;;;;;;;;10.03;100.00;100950.47;5025211;28;19963;-76
2023/12/28 06:32:01;;;;;;;;;;;;;;;9.98;100.00;100951.75;5026860;28;20024;-79
2023/12/28 06:34:26;;;;;;;;;;;;;;;10.05;100.00;100969.13;5026576;28;20282;-83
2023/12/28 06:36:52;;;;;;;;;;;;;;;10.03;100.00;100961.19;5030295;28;19935;-78
2023/12/28 06:39:17;;;;;;;;;;;;;;;9.96;100.00;100959.94;5015419;28;19920;-80
2023/12/28 06:41:42;;;;;;;;;;;;;;;10.00;100.00;100960.53;5030093;28;20351;-79
2023/12/28 06:44:08;;;;;;;;;;;;;;;10.04;100.00;100951.31;5024004;28;19932;-77
2023/12/28 06:46:33;;;;;;;;;;;;;;;9.99;100.00;100954.34;5029670;28;20016;-76
2023/12/28 06:48:59;;;;;;;;;;;;;;;9.93;100.00;100973.56;5023832;28;20372;-79
2023/12/28 06:51:24;;;;;;;;;;;;;;;10.08;100.00;100965.34;5023380;28;20587;-79
2023/12/28 06:53:49;;;;;;;;;;;;;;;10.03;100.00;100955.81;5025354;28;20039;-77
2023/12/28 06:56:14;;;;;;;;;;;;;;;10.01;100.00;100952.41;5025973;28;19964;-78
2023/12/28 06:58:40;;;;;;;;;;;;;;;9.87;100.00;100945.38;5008331;28;20544;-77
2023/12/28 07:01:05;;;;;;;;;;;;;;;9.92;100.00;100966.47;5026344;28;19921;-79
2023/12/28 07:03:32;;;;;;;;;;;;;;;9.87;100.00;100965.94;5025751;28;19924;-77
2023/12/28 07:05:57;;;;;;;;;;;;;;;9.83;100.00;100959.97;5012630;28;20146;-77
2023/12/28 07:08:23;;;;;;;;;;;;;;;9.90;100.00;100968.41;5028941;28;19944;-79
2023/12/28 07:10:48;;;;;;;;;;;;;;;9.95;100.00;100965.38;5030417;28;20035;-79
2023/12/28 07:13:13;;;;;;;;;;;;;;;9.98;100.00;100974.09;5011527;28;20368;-82
2023/12/28 07:15:39;;;;;;;;;;;;;;;9.96;100.00;100976.03;5028560;28;20383;-80
2023/12/28 07:18:04;;;;;;;;;;;;;;;9.90;100.00;100980.00;5023072;28;20007;-75
2023/12/28 07:20:29;;;;;;;;;;;;;;;9.92;100.00;100979.88;5027874;28;20302;-80
2023/12/28 07:22:54;;;;;;;;;;;;;;;9.97;100.00;100977.72;5012399;28;19924;-80
2023/12/28 07:25:20;;;;;;;;;;;;;;;9.89;100.00;100983.66;5017164;28;20358;-76
2023/12/28 07:27:45;;;;;;;;;;;;;;;9.97;100.00;100982.22;5022536;28;19928;-76
2023/12/28 07:30:10;;;;;;;;;;;;;;;9.89;100.00;100974.75;5029998;28;19924;-75
2023/12/28 07:32:36;;;;;;;;;;;;;;;9.76;100.00;100972.09;5025357;28;19968;-75
2023/12/28 07:35:01;;;;;;;;;;;;;;;9.81;100.00;100974.44;5026723;28;20382;-75
2023/12/28 07:37:26;;;;;;;;;;;;;;;9.75;100.00;100983.78;5014069;28;20540;-76
2023/12/28 07:39:52;;;;;;;;;;;;;;;9.65;100.00;100997.00;5027101;28;19964;-74
2023/12/28 07:42:17;;;;;;;;;;;;;;;9.59;100.00;100971.50;5016781;28;20331;-76
2023/12/28 07:44:42;;;;;;;;;;;;;;;9.75;100.00;101002.56;5032870;28;19921;-76
2023/12/28 07:47:07;;;;;;;;;;;;;;;9.57;100.00;101008.28;5031189;28;19927;-80
2023/12/28 07:49:33;;;;;;;;;;;;;;;9.58;100.00;101009.13;5029919;28;19927;-75
2023/12/28 07:51:58;;;;;;;;;;;;;;;9.39;100.00;101014.94;5027759;28;19927;-76
2023/12/28 07:54:23;;;;;;;;;;;;;;;9.53;100.00;101017.50;5031980;28;19921;-77
2023/12/28 07:56:48;;;;;;;;;;;;;;;9.47;100.00;101025.13;5034196;28;19921;-76
2023/12/28 07:59:13;;;;;;;;;;;;;;;9.55;100.00;101025.41;5012684;28;19924;-77
2023/12/28 08:01:39;;;;;;;;;;;;;;;9.65;100.00;101023.81;5030107;28;19917;-75
2023/12/28 08:04:04;;;;;;;;;;;;;;;9.75;100.00;101032.06;5012670;28;19971;-76
2023/12/28 08:06:32;;;;;;;;;;;;;;;9.89;100.00;101031.06;5024027;28;20395;-76
2023/12/28 08:08:59;;;;;;;;;;;;;;;9.74;100.00;101041.06;5017459;28;19943;-75
2023/12/28 08:11:24;;;;;;;;;;;;;;;9.75;100.00;101062.41;5030222;28;19917;-79
2023/12/28 08:13:49;;;;;;;;;;;;;;;9.95;100.00;101040.47;5030588;28;19935;-77
2023/12/28 08:16:14;;;;;;;;;;;;;;;9.90;100.00;101049.75;5012929;28;19931;-76
2023/12/28 08:18:39;;;;;;;;;;;;;;;9.84;100.00;101046.63;5029352;28;19920;-75
2023/12/28 08:21:05;;;;;;;;;;;;;;;9.81;100.00;101047.72;5011021;28;20401;-75
2023/12/28 08:23:30;;;;;;;;;;;;;;;9.85;100.00;101051.88;5029259;28;20318;-78
2023/12/28 08:25:55;;;;;;;;;;;;;;;9.69;100.00;101028.00;5030290;28;20387;-76
2023/12/28 08:28:20;;;;;;;;;;;;;;;9.88;100.00;101043.63;5031478;28;20341;-76
2023/12/28 08:30:46;;;;;;;;;;;;;;;9.88;100.00;101032.03;5034250;28;20281;-76
2023/12/28 08:33:11;;;;;;;;;;;;;;;9.91;100.00;101047.91;5031065;28;20023;-76
2023/12/28 08:35:36;;;;;;;;;;;;;;;9.88;100.00;101023.97;5028571;28;19925;-76
2023/12/28 08:38:01;;;;;;;;;;;;;;;9.92;100.00;101038.06;5026223;28;19921;-75
2023/12/28 08:40:27;;;;;;;;;;;;;;;9.82;100.00;101038.69;5012310;28;20333;-77
2023/12/28 08:42:52;;;;;;;;;;;;;;;9.84;100.00;101018.00;5029106;28;19958;-77
2023/12/28 08:45:17;;;;;;;;;;;;;;;9.90;100.00;101051.56;5031603;28;19928;-75
2023/12/28 08:47:42;;;;;;;;;;;;;;;9.95;100.00;101072.66;5031078;28;19929;-74
2023/12/28 08:50:07;;;;;;;;;;;;;;;9.94;100.00;101055.72;5032350;28;19924;-77
2023/12/28 08:52:33;;;;;;;;;;;;;;;9.94;100.00;101055.72;5024751;28;20236;-75
2023/12/28 08:54:59;;;;;;;;;;;;;;;10.11;100.00;101067.06;5024122;28;19943;-76
2023/12/28 08:57:24;;;;;;;;;;;;;;;10.00;100.00;101068.72;5024972;28;19975;-76
2023/12/28 08:59:49;;;;;;;;;;;;;;;10.02;100.00;101068.59;5028584;28;19960;-75
2023/12/28 09:02:14;;;;;;;;;;;;;;;10.06;100.00;101092.38;5025210;28;20036;-75
2023/12/28 09:04:40;;;;;;;;;;;;;;;10.00;100.00;101076.75;5028525;28;20332;-76
2023/12/28 09:07:05;;;;;;;;;;;;;;;10.01;100.00;101088.34;5025411;28;20453;-76
2023/12/28 09:09:30;;;;;;;;;;;;;;;9.95;100.00;101092.31;5031287;28;19917;-80
2023/12/28 09:11:55;;;;;;;;;;;;;;;9.93;100.00;101086.19;5015409;28;20038;-76
2023/12/28 09:14:21;;;;;;;;;;;;;;;9.95;100.00;101070.88;5028952;28;20399;-78
2023/12/28 09:16:47;;;;;;;;;;;;;;;9.94;100.00;101092.41;5013934;28;20252;-78
2023/12/28 09:19:12;;;;;;;;;;;;;;;10.01;100.00;101080.28;5013941;28;19921;-77
2023/12/28 09:21:38;;;;;;;;;;;;;;;10.09;100.00;101088.66;5013016;28;19924;-76
2023/12/28 09:24:03;;;;;;;;;;;;;;;9.95;100.00;101073.53;5030474;28;19925;-75
2023/12/28 09:26:28;;;;;;;;;;;;;;;9.99;100.00;101104.56;5012462;28;19925;-73
2023/12/28 09:28:54;;;;;;;;;;;;;;;10.02;100.00;101098.97;5029330;28;19925;-74
2023/12/28 09:31:20;;;;;;;;;;;;;;;10.04;100.00;101110.44;5026443;28;19927;-76
2023/12/28 09:33:45;;;;;;;;;;;;;;;9.95;100.00;101102.19;5029356;28;19921;-76
2023/12/28 09:36:12;;;;;;;;;;;;;;;10.04;100.00;101105.09;5008713;28;19921;-77
2023/12/28 09:38:38;;;;;;;;;;;;;;;9.99;100.00;101096.50;5033527;28;19927;-75
2023/12/28 09:41:16;;;;;;;;;;;;;;;9.99;100.00;101104.56;5032984;28;19920;-75
2023/12/28 09:43:44;;;;;;;;;;;;;;;9.96;100.00;101103.88;5025725;28;19927;-74
2023/12/28 09:46:11;;;;;;;;;;;;;;;9.99;100.00;101098.31;5025471;28;19931;-75
2023/12/28 09:48:36;;;;;;;;;;;;;;;9.95;100.00;101105.72;5020778;28;20890;-76
2023/12/28 09:51:01;;;;;;;;;;;;;;;10.10;100.00;101114.50;5030986;28;19979;-73
2023/12/28 09:53:27;;;;;;;;;;;;;;;10.12;100.00;101117.94;5038233;28;20038;-78
2023/12/28 09:55:52;;;;;;;;;;;;;;;10.11;100.00;101101.94;5036549;28;20047;-74
2023/12/28 09:58:19;;;;;;;;;;;;;;;10.08;100.00;101115.56;5033419;28;20449;-75
2023/12/28 10:00:44;;;;;;;;;;;;;;;10.12;100.00;101109.91;5032185;28;19921;-75
2023/12/28 10:03:10;;;;;;;;;;;;;;;10.09;100.00;101114.59;5013965;28;19928;-76
2023/12/28 10:05:35;;;;;;;;;;;;;;;10.11;100.00;101120.72;5014679;28;20432;-77
2023/12/28 10:08:00;;;;;;;;;;;;;;;10.12;100.00;101134.03;5036520;28;19927;-75
2023/12/28 10:10:25;;;;;;;;;;;;;;;10.14;100.00;101129.44;5034420;28;19921;-77
2023/12/28 10:12:51;;;;;;;;;;;;;;;10.16;100.00;101127.50;5032888;28;20207;-75
2023/12/28 10:15:16;;;;;;;;;;;;;;;10.19;100.00;101126.41;5030677;28;20453;-75
2023/12/28 10:17:41;;;;;;;;;;;;;;;10.18;100.00;101113.97;5031136;28;20374;-73
2023/12/28 10:20:09;;;;;;;;;;;;;;;10.12;100.00;101134.03;5032941;28;20520;-78
2023/12/28 10:22:34;;;;;;;;;;;;;;;10.11;100.00;101116.22;5032817;28;19917;-77
2023/12/28 10:25:03;;;;;;;;;;;;;;;10.15;100.00;101124.91;5019805;28;20366;-74
2023/12/28 10:27:28;;;;;;;;;;;;;;;10.18;100.00;101120.19;5023880;28;19936;-78
2023/12/28 10:29:55;;;;;;;;;;;;;;;10.18;100.00;101103.22;5028918;28;20326;-75
2023/12/28 10:32:20;;;;;;;;;;;;;;;9.95;100.00;101072.66;5024167;28;19920;-76
2023/12/28 10:34:45;;;;;;;;;;;;;;;10.27;100.00;101107.94;5024212;28;20378;-75
2023/12/28 10:37:11;;;;;;;;;;;;;;;10.33;100.00;101109.31;5027215;28;20241;-74
2023/12/28 10:39:36;;;;;;;;;;;;;;;10.39;100.00;101106.22;5013104;28;19925;-77
2023/12/28 10:42:03;;;;;;;;;;;;;;;10.47;100.00;101101.13;5015190;28;20370;-76
2023/12/28 10:44:28;;;;;;;;;;;;;;;10.58;100.00;101108.41;5027274;28;19913;-77
2023/12/28 10:46:55;;;;;;;;;;;;;;;10.84;100.00;101096.69;5007925;28;19968;-76
2023/12/28 10:49:21;;;;;;;;;;;;;;;10.85;100.00;101107.34;5023383;28;20400;-77
2023/12/28 10:51:46;;;;;;;;;;;;;;;10.84;100.00;101118.19;5023365;28;19928;-79
2023/12/28 10:54:14;;;;;;;;;;;;;;;11.00;100.00;101118.72;5012932;28;19921;-76
2023/12/28 10:56:44;;;;;;;;;;;;;;;10.94;100.00;101114.69;5028525;28;20314;-74
2023/12/28 10:59:09;;;;;;;;;;;;;;;10.93;100.00;101118.34;5026675;28;19925;-74
2023/12/28 11:01:36;;;;;;;;;;;;;;;10.93;100.00;101118.34;5031291;28;19928;-76
2023/12/28 11:04:10;;;;;;;;;;;;;;;11.00;100.00;101112.53;5017168;28;19961;-76
2023/12/28 11:06:35;;;;;;;;;;;;;;;11.02;100.00;101107.88;5033872;28;19976;-74
2023/12/28 11:09:00;;;;;;;;;;;;;;;11.11;100.00;101107.19;5036019;28;19972;-77
2023/12/28 11:11:26;;;;;;;;;;;;;;;11.16;100.00;101104.16;5029618;28;20080;-75
2023/12/28 11:13:52;;;;;;;;;;;;;;;11.10;100.00;101098.28;5034371;28;20007;-75
2023/12/28 11:16:17;;;;;;;;;;;;;;;11.14;100.00;101098.88;5013524;28;19921;-76
2023/12/28 11:18:43;;;;;;;;;;;;;;;11.19;100.00;101085.94;5030965;28;19921;-76
2023/12/28 11:21:08;;;;;;;;;;;;;;;11.07;100.00;101101.19;5035429;28;19927;-79
2023/12/28 11:23:33;;;;;;;;;;;;;;;11.12;100.00;101094.59;5033389;28;20416;-73
2023/12/28 11:25:58;;;;;;;;;;;;;;;11.04;100.00;101089.81;5031953;28;20452;-75
2023/12/28 11:28:24;;;;;;;;;;;;;;;11.01;100.00;101072.09;5030927;28;20031;-73
2023/12/28 11:30:49;;;;;;;;;;;;;;;10.94;100.00;101060.13;5017325;28;19925;-76
2023/12/28 11:33:14;;;;;;;;;;;;;;;10.74;100.00;101077.72;5012600;28;19928;-74
2023/12/28 11:35:40;;;;;;;;;;;;;;;10.72;100.00;101076.97;5030904;28;19921;-74
2023/12/28 11:38:09;;;;;;;;;;;;;;;10.76;100.00;101078.47;5015630;28;19928;-76
2023/12/28 11:40:47;;;;;;;;;;;;;;;10.56;100.00;101067.41;5027167;28;19921;-74
2023/12/28 11:43:18;;;;;;;;;;;;;;;10.60;100.00;101065.34;5027694;28;19935;-74
2023/12/28 11:45:50;;;;;;;;;;;;;;;10.74;100.00;101062.47;5032066;28;19975;-76
2023/12/28 11:48:25;;;;;;;;;;;;;;;10.75;100.00;101053.44;5029393;28;20135;-76
2023/12/28 11:50:52;;;;;;;;;;;;;;;10.85;100.00;101060.81;5011002;28;19921;-77
2023/12/28 11:53:18;;;;;;;;;;;;;;;10.95;100.00;101059.16;5015945;28;19916;-73
2023/12/28 11:55:43;;;;;;;;;;;;;;;11.02;100.00;101073.81;5017099;28;20018;-77
2023/12/28 11:58:08;;;;;;;;;;;;;;;11.03;100.00;101063.94;5030850;28;19957;-78
2023/12/28 12:00:34;;;;;;;;;;;;;;;10.95;100.00;101060.00;5032479;28;19925;-77
2023/12/28 12:02:59;;;;;;;;;;;;;;;10.82;100.00;101077.16;5030246;28;19979;-77
2023/12/28 12:05:24;;;;;;;;;;;;;;;10.61;100.00;101032.13;5014379;28;20015;-75
2023/12/28 12:07:49;;;;;;;;;;;;;;;10.81;100.00;101052.13;5015671;28;19921;-74
2023/12/28 12:10:15;;;;;;;;;;;;;;;10.70;100.00;101033.28;5015850;28;19919;-78
2023/12/28 12:12:42;;;;;;;;;;;;;;;10.80;100.00;101039.69;5028275;28;20011;-75
2023/12/28 12:15:07;;;;;;;;;;;;;;;10.60;100.00;101041.16;5017636;28;19996;-79
2023/12/28 12:17:32;;;;;;;;;;;;;;;10.52;100.00;101054.28;5016655;28;20273;-76
2023/12/28 12:19:58;;;;;;;;;;;;;;;10.45;100.00;101043.16;5030167;28;20491;-77
2023/12/28 12:22:23;;;;;;;;;;;;;;;10.49;100.00;101064.28;5031199;28;20355;-75
2023/12/28 12:24:49;;;;;;;;;;;;;;;10.45;100.00;101046.72;5028391;28;19920;-74